Time;durP1;ratioP1;P1;durP2;ratioP2;P2;SDS_P1;SDS_P2;PMS_P1;PMS_P2;Temp;Humidity;BMP_temperature;BMP_pressure;BME280_temperature;BME280_humidity;BME280_pressure;Samples;Min_cycle;Max_cycle;Signal;HPM_P1;HPM_P2
2021/05/27 00:01:50;;;;;;;1.87;1.50;;;9.10;99.90;;;;;;5051667;28;20197;-55
2021/05/27 00:04:16;;;;;;;1.60;1.50;;;9.10;99.90;;;;;;5049583;28;20651;-56
2021/05/27 00:06:41;;;;;;;1.60;1.50;;;9.10;99.90;;;;;;5052535;28;20178;-55
2021/05/27 00:09:07;;;;;;;1.60;1.50;;;9.20;99.90;;;;;;5051117;28;20166;-56
2021/05/27 00:11:32;;;;;;;1.80;1.70;;;9.20;99.90;;;;;;5051749;28;20193;-55
2021/05/27 00:13:58;;;;;;;1.70;1.60;;;9.20;99.90;;;;;;5051496;28;20177;-54
2021/05/27 00:16:24;;;;;;;2.10;1.90;;;9.20;99.90;;;;;;5050088;28;20186;-55
2021/05/27 00:18:52;;;;;;;1.80;1.70;;;9.20;99.90;;;;;;5051871;28;20413;-56
2021/05/27 00:21:19;;;;;;;4.27;2.10;;;9.20;99.90;;;;;;5050570;28;20243;-56
2021/05/27 00:23:44;;;;;;;2.10;1.87;;;9.20;99.90;;;;;;5051142;28;20465;-56
2021/05/27 00:26:10;;;;;;;1.77;1.67;;;9.20;99.90;;;;;;5050423;28;20440;-56
2021/05/27 00:28:37;;;;;;;2.47;2.00;;;9.20;99.90;;;;;;5051680;28;20202;-53
2021/05/27 00:31:03;;;;;;;2.30;2.00;;;9.20;99.90;;;;;;5050779;28;20432;-55
2021/05/27 00:33:28;;;;;;;2.17;1.97;;;9.20;99.90;;;;;;5051073;28;20499;-59
2021/05/27 00:35:54;;;;;;;1.97;1.83;;;9.20;99.90;;;;;;5051117;28;20434;-51
2021/05/27 00:38:19;;;;;;;1.90;1.80;;;9.30;99.90;;;;;;5051531;28;20178;-55
2021/05/27 00:40:45;;;;;;;2.77;2.20;;;9.30;99.90;;;;;;5050598;28;20598;-54
2021/05/27 00:43:10;;;;;;;2.30;2.10;;;9.40;99.90;;;;;;5055737;28;20643;-53
2021/05/27 00:45:36;;;;;;;1.97;1.87;;;9.40;99.90;;;;;;5050655;28;20222;-53
2021/05/27 00:48:02;;;;;;;2.30;2.10;;;9.40;99.90;;;;;;5049600;28;20178;-53
2021/05/27 00:50:28;;;;;;;2.20;2.00;;;9.50;99.90;;;;;;5049619;28;20185;-51
2021/05/27 00:52:55;;;;;;;2.60;2.10;;;9.40;99.90;;;;;;5051415;28;20482;-56
2021/05/27 00:55:27;;;;;;;2.50;2.30;;;9.40;99.90;;;;;;5051104;28;20261;-54
2021/05/27 00:57:53;;;;;;;2.63;1.90;;;9.30;99.90;;;;;;5050999;28;20507;-56
2021/05/27 01:00:23;;;;;;;1.90;1.80;;;9.30;99.90;;;;;;5049360;28;20866;-53
2021/05/27 01:02:49;;;;;;;2.40;2.20;;;9.20;99.90;;;;;;5051282;28;20436;-54
2021/05/27 01:05:16;;;;;;;2.00;1.90;;;9.10;99.90;;;;;;5049692;28;20446;-52
2021/05/27 01:07:43;;;;;;;2.30;2.10;;;9.00;99.90;;;;;;5050932;28;20543;-53
2021/05/27 01:10:10;;;;;;;1.73;1.63;;;9.00;99.90;;;;;;5050016;28;20440;-54
2021/05/27 01:12:36;;;;;;;3.53;2.27;;;8.90;99.90;;;;;;5049363;28;20834;-50
2021/05/27 01:17:48;;;;;;;2.30;2.10;;;8.80;99.90;;;;;;5045553;28;20271;-51
2021/05/27 01:20:14;;;;;;;2.13;1.93;;;8.70;99.90;;;;;;5049994;28;20503;-54
2021/05/27 01:22:40;;;;;;;2.53;2.17;;;8.70;99.90;;;;;;5049101;28;20695;-55
2021/05/27 01:25:07;;;;;;;2.40;2.20;;;8.60;99.90;;;;;;5039548;28;20240;-52
2021/05/27 01:27:33;;;;;;;2.83;2.50;;;8.60;99.90;;;;;;5048762;28;20442;-53
2021/05/27 01:29:58;;;;;;;2.40;2.20;;;8.50;99.90;;;;;;5050726;28;20431;-53
2021/05/27 01:32:24;;;;;;;2.63;2.43;;;8.50;99.90;;;;;;5049929;28;20929;-53
2021/05/27 01:34:50;;;;;;;2.80;2.50;;;8.50;99.90;;;;;;5049851;28;20222;-53
2021/05/27 01:37:15;;;;;;;3.33;2.63;;;8.50;99.90;;;;;;5049763;28;20177;-51
2021/05/27 01:39:48;;;;;;;2.53;2.33;;;8.40;99.90;;;;;;5050206;28;20701;-57
2021/05/27 01:42:14;;;;;;;3.00;2.70;;;8.40;99.90;;;;;;5050086;28;20299;-53
2021/05/27 01:44:43;;;;;;;3.00;2.40;;;8.40;99.90;;;;;;5048290;28;20468;-57
2021/05/27 01:47:09;;;;;;;2.77;2.53;;;8.30;99.90;;;;;;5050409;28;21288;-56
2021/05/27 01:49:39;;;;;;;3.60;3.17;;;8.30;99.90;;;;;;5045602;28;20451;-57
2021/05/27 01:52:05;;;;;;;3.27;2.97;;;8.30;99.90;;;;;;5048994;28;20442;-59
2021/05/27 01:54:30;;;;;;;3.07;2.77;;;8.30;99.90;;;;;;5049036;28;20436;-55
2021/05/27 01:56:56;;;;;;;3.90;3.40;;;8.30;99.90;;;;;;5049881;28;20193;-55
2021/05/27 01:59:22;;;;;;;3.20;2.90;;;8.20;99.90;;;;;;5048798;28;20181;-57
2021/05/27 02:01:47;;;;;;;9.10;3.10;;;8.20;99.90;;;;;;5048815;28;20562;-54
2021/05/27 02:04:13;;;;;;;3.50;3.20;;;8.20;99.90;;;;;;5049778;28;20307;-52
2021/05/27 02:06:38;;;;;;;3.57;3.27;;;8.10;99.90;;;;;;5048279;28;20636;-57
2021/05/27 02:09:10;;;;;;;4.20;3.63;;;8.20;99.90;;;;;;5049292;28;20232;-59
2021/05/27 02:11:44;;;;;;;4.27;3.67;;;8.20;99.90;;;;;;5050325;28;20304;-51
2021/05/27 02:14:12;;;;;;;5.73;4.20;;;8.20;99.90;;;;;;5049268;28;20449;-54
2021/05/27 02:16:40;;;;;;;4.30;3.90;;;8.20;99.90;;;;;;5047850;28;20563;-52
2021/05/27 02:19:06;;;;;;;4.80;4.30;;;8.30;99.90;;;;;;5048473;28;20911;-54
2021/05/27 02:21:32;;;;;;;4.83;4.43;;;8.40;99.90;;;;;;5049480;28;20475;-56
2021/05/27 02:23:59;;;;;;;4.73;4.33;;;8.60;99.90;;;;;;5046365;28;20797;-55
2021/05/27 02:26:26;;;;;;;4.90;4.40;;;8.60;99.90;;;;;;5049214;28;20435;-56
2021/05/27 02:28:52;;;;;;;5.10;4.70;;;8.50;99.90;;;;;;5048506;28;20489;-56
2021/05/27 02:31:19;;;;;;;4.40;4.00;;;8.60;99.90;;;;;;5048989;28;20555;-63
2021/05/27 02:33:45;;;;;;;5.10;4.60;;;8.50;99.90;;;;;;5049243;28;20185;-55
2021/05/27 02:36:10;;;;;;;4.30;3.87;;;8.50;99.90;;;;;;5049075;28;20457;-52
2021/05/27 02:38:36;;;;;;;5.17;4.77;;;8.50;99.90;;;;;;5049278;28;20454;-57
2021/05/27 02:41:05;;;;;;;5.07;4.67;;;8.40;99.90;;;;;;5048857;28;20208;-56
2021/05/27 02:43:33;;;;;;;5.77;5.07;;;8.50;99.90;;;;;;5047506;28;20439;-56
2021/05/27 02:46:00;;;;;;;4.70;4.30;;;8.60;99.90;;;;;;5049770;28;20455;-57
2021/05/27 02:48:25;;;;;;;4.93;4.53;;;8.50;99.90;;;;;;5049454;28;20875;-54
2021/05/27 02:50:51;;;;;;;4.70;4.30;;;8.40;99.90;;;;;;5048332;28;20448;-56
2021/05/27 02:53:16;;;;;;;4.90;4.33;;;8.30;99.90;;;;;;5048711;28;20201;-52
2021/05/27 02:55:42;;;;;;;6.20;4.70;;;8.20;99.90;;;;;;5048675;28;20190;-54
2021/05/27 02:58:08;;;;;;;6.00;5.50;;;8.20;99.90;;;;;;5042461;28;20368;-56
2021/05/27 03:00:33;;;;;;;5.30;4.73;;;8.10;99.90;;;;;;5042709;28;20253;-57
2021/05/27 03:02:59;;;;;;;6.47;5.27;;;8.10;99.90;;;;;;5047806;28;20723;-52
2021/05/27 03:05:24;;;;;;;6.23;5.63;;;8.10;99.90;;;;;;5048654;28;20181;-52
2021/05/27 03:07:50;;;;;;;6.07;5.57;;;8.20;99.90;;;;;;5049809;28;20187;-55
2021/05/27 03:10:15;;;;;;;6.50;5.43;;;8.20;99.90;;;;;;5052956;28;20320;-53
2021/05/27 03:12:41;;;;;;;6.47;5.87;;;8.10;99.90;;;;;;5047874;28;20216;-53
2021/05/27 03:15:07;;;;;;;7.33;5.60;;;8.20;99.90;;;;;;5049511;28;20197;-55
2021/05/27 03:17:33;;;;;;;6.03;5.43;;;8.20;99.90;;;;;;5048333;28;20312;-54
2021/05/27 03:19:59;;;;;;;7.00;6.30;;;8.30;99.90;;;;;;5047713;28;20464;-55
2021/05/27 03:22:25;;;;;;;6.53;5.80;;;8.30;99.90;;;;;;5048019;28;20489;-52
2021/05/27 03:24:50;;;;;;;6.93;6.23;;;8.40;99.90;;;;;;5048664;28;20938;-60
2021/05/27 03:27:16;;;;;;;6.20;5.60;;;8.40;99.90;;;;;;5048717;28;20200;-52
2021/05/27 03:29:42;;;;;;;6.00;5.43;;;8.50;99.90;;;;;;5047097;28;20199;-52
2021/05/27 03:32:07;;;;;;;6.23;5.63;;;8.60;99.90;;;;;;5048458;28;20181;-53
2021/05/27 03:34:33;;;;;;;6.10;5.50;;;8.90;87.60;;;;;;5047362;28;20186;-51
2021/05/27 03:36:59;;;;;;;7.30;5.50;;;8.90;85.90;;;;;;5048749;28;20571;-53
2021/05/27 03:39:24;;;;;;;5.73;5.23;;;8.90;79.40;;;;;;5047445;28;20455;-51
2021/05/27 03:41:50;;;;;;;5.73;5.10;;;8.90;86.90;;;;;;5048541;28;20644;-53
2021/05/27 03:44:15;;;;;;;5.90;5.40;;;8.90;91.00;;;;;;5047345;28;20264;-51
2021/05/27 03:46:41;;;;;;;6.13;5.53;;;8.80;93.80;;;;;;5048559;28;20232;-54
2021/05/27 03:49:07;;;;;;;6.17;5.50;;;8.80;94.80;;;;;;5045974;28;20189;-51
2021/05/27 03:51:32;;;;;;;6.60;6.00;;;8.70;97.10;;;;;;5047664;28;20193;-57
2021/05/27 03:53:58;;;;;;;6.00;5.40;;;8.70;99.10;;;;;;5047819;28;20196;-52
2021/05/27 03:56:23;;;;;;;6.63;5.93;;;8.70;96.10;;;;;;5046719;28;20204;-53
2021/05/27 04:01:33;;;;;;;6.83;6.13;;;8.90;80.00;;;;;;5043970;28;20208;-53
2021/05/27 04:09:27;;;;;;;5.60;4.97;;;9.40;48.80;;;;;;5038694;28;20423;-54
2021/05/27 04:12:44;;;;;;;5.47;4.97;;;9.60;21.40;;;;;;5038174;28;20448;-56
2021/05/27 04:14:38;;;;;;;5.50;5.00;;;9.90;20.30;;;;;;5039340;28;20185;-55
2021/05/27 04:17:03;;;;;;;5.30;4.90;;;10.00;13.80;;;;;;5037695;28;20439;-54
2021/05/27 04:19:29;;;;;;;5.20;4.77;;;10.00;10.10;;;;;;5039776;28;20242;-57
2021/05/27 04:21:54;;;;;;;5.17;4.77;;;10.10;9.30;;;;;;5037924;28;20236;-53
2021/05/27 04:24:20;;;;;;;6.07;5.57;;;10.20;7.50;;;;;;5039690;28;20225;-57
2021/05/27 04:26:45;;;;;;;5.53;4.90;;;10.30;13.10;;;;;;5039229;28;20200;-57
2021/05/27 04:29:11;;;;;;;5.03;4.60;;;10.30;7.80;;;;;;5039712;28;20225;-57
2021/05/27 04:31:37;;;;;;;5.80;5.30;;;10.40;10.70;;;;;;5038588;28;20288;-51
2021/05/27 04:34:03;;;;;;;5.30;4.80;;;10.50;1.00;;;;;;5038909;28;20443;-56
2021/05/27 04:36:28;;;;;;;5.00;4.60;;;10.50;5.30;;;;;;5038906;28;20240;-54
2021/05/27 04:38:54;;;;;;;5.80;5.30;;;10.60;1.00;;;;;;5040397;28;20221;-59
2021/05/27 04:41:21;;;;;;;5.67;5.13;;;10.60;2.80;;;;;;5043438;28;20197;-55
2021/05/27 04:43:53;;;;;;;7.23;5.53;;;10.70;1.00;;;;;;5044463;28;20256;-62
2021/05/27 04:46:18;;;;;;;5.80;5.30;;;10.80;1.00;;;;;;5050944;28;20436;-60
2021/05/27 04:48:44;;;;;;;5.10;4.60;;;11.00;1.00;;;;;;5046709;28;20433;-55
2021/05/27 04:51:10;;;;;;;5.33;4.63;;;11.20;1.00;;;;;;5050619;28;20243;-52
2021/05/27 04:53:35;;;;;;;5.30;4.90;;;11.30;1.00;;;;;;5051631;28;20182;-57
2021/05/27 04:56:03;;;;;;;5.10;4.70;;;11.30;1.00;;;;;;5051657;28;20193;-55
2021/05/27 04:58:30;;;;;;;5.00;4.60;;;11.30;1.00;;;;;;5050452;28;20185;-58
2021/05/27 05:00:56;;;;;;;5.30;4.90;;;11.30;1.00;;;;;;5050751;28;20969;-58
2021/05/27 05:03:22;;;;;;;4.60;4.20;;;11.40;1.00;;;;;;5051530;28;20432;-55
2021/05/27 05:05:47;;;;;;;4.43;4.03;;;11.40;1.00;;;;;;5050220;28;20433;-55
2021/05/27 05:08:13;;;;;;;4.90;4.50;;;11.40;1.00;;;;;;5051271;28;20831;-58
2021/05/27 05:10:41;;;;;;;5.20;4.80;;;11.40;1.00;;;;;;5052775;28;20185;-54
2021/05/27 05:13:06;;;;;;;4.23;3.93;;;11.40;1.00;;;;;;5062800;28;20196;-54
2021/05/27 05:15:35;;;;;;;4.97;4.60;;;11.40;1.00;;;;;;5050939;28;20504;-54
2021/05/27 05:18:05;;;;;;;3.87;3.50;;;11.40;1.00;;;;;;5051080;28;20173;-57
2021/05/27 05:20:37;;;;;;;4.80;4.33;;;11.50;1.00;;;;;;5050739;28;20471;-56
2021/05/27 05:23:03;;;;;;;5.20;4.80;;;11.50;1.00;;;;;;5050354;28;20424;-56
2021/05/27 05:25:31;;;;;;;4.80;4.40;;;11.60;1.00;;;;;;5049968;28;20416;-54
2021/05/27 05:27:58;;;;;;;4.93;4.53;;;11.60;1.00;;;;;;5051156;28;20423;-54
2021/05/27 05:30:25;;;;;;;4.70;4.30;;;11.70;1.00;;;;;;5050684;28;20420;-56
2021/05/27 05:32:52;;;;;;;4.60;4.20;;;11.80;1.00;;;;;;5050494;28;20428;-58
2021/05/27 05:35:18;;;;;;;5.40;4.90;;;11.90;1.00;;;;;;5050765;28;20416;-59
2021/05/27 05:37:44;;;;;;;5.10;4.70;;;11.90;1.00;;;;;;5050242;28;20438;-56
2021/05/27 05:40:11;;;;;;;5.60;4.70;;;12.00;1.00;;;;;;5048124;28;20475;-57
2021/05/27 05:42:38;;;;;;;4.73;4.33;;;12.00;1.00;;;;;;5049671;28;20182;-54
2021/05/27 05:45:05;;;;;;;5.70;5.30;;;12.10;1.00;;;;;;5050544;28;20558;-58
2021/05/27 05:47:31;;;;;;;5.67;5.07;;;12.10;1.00;;;;;;5050738;28;20519;-57
2021/05/27 05:49:56;;;;;;;7.00;6.40;;;12.10;1.00;;;;;;5049541;28;20484;-58
2021/05/27 05:52:22;;;;;;;5.50;5.10;;;12.30;1.00;;;;;;5048925;28;20825;-57
2021/05/27 05:54:47;;;;;;;5.53;5.13;;;12.30;1.00;;;;;;5050089;28;20178;-57
2021/05/27 05:57:13;;;;;;;6.20;5.70;;;12.30;1.00;;;;;;5050079;28;20228;-57
2021/05/27 05:59:39;;;;;;;4.90;4.60;;;12.50;1.00;;;;;;5049665;28;20552;-57
2021/05/27 06:02:04;;;;;;;6.00;5.50;;;12.50;1.00;;;;;;5042125;28;20217;-55
2021/05/27 06:04:31;;;;;;;5.53;5.03;;;12.50;1.00;;;;;;5050207;28;20261;-59
2021/05/27 06:06:57;;;;;;;5.70;5.20;;;12.50;1.00;;;;;;5050619;28;20239;-57
2021/05/27 06:09:24;;;;;;;6.13;5.50;;;12.50;1.00;;;;;;5049630;28;20511;-58
2021/05/27 06:11:50;;;;;;;6.17;5.47;;;12.50;1.00;;;;;;5050984;28;20872;-55
2021/05/27 06:14:16;;;;;;;5.93;5.43;;;12.50;1.00;;;;;;5047954;28;20523;-59
2021/05/27 06:16:41;;;;;;;5.90;5.40;;;12.60;1.00;;;;;;5048786;28;20428;-57
2021/05/27 06:19:07;;;;;;;5.07;4.67;;;12.70;1.00;;;;;;5048524;28;20178;-61
2021/05/27 06:21:33;;;;;;;5.33;4.83;;;12.80;1.00;;;;;;5049289;28;20548;-60
2021/05/27 06:23:58;;;;;;;6.00;5.00;;;12.90;1.00;;;;;;5046547;28;20719;-57
2021/05/27 06:26:24;;;;;;;5.27;4.87;;;13.00;1.00;;;;;;5047472;28;20462;-58
2021/05/27 06:28:49;;;;;;;5.63;5.10;;;13.10;99.90;;;;;;5048438;28;20216;-56
2021/05/27 06:31:15;;;;;;;6.50;5.17;;;13.10;1.00;;;;;;5048175;28;20186;-55
2021/05/27 06:33:41;;;;;;;5.77;5.27;;;13.10;1.00;;;;;;5047651;28;20217;-58
2021/05/27 06:36:07;;;;;;;5.17;4.40;;;13.10;99.90;;;;;;5049384;28;20177;-58
2021/05/27 06:38:33;;;;;;;5.47;5.03;;;13.10;1.00;;;;;;5055751;28;20971;-56
2021/05/27 06:40:58;;;;;;;5.37;4.97;;;13.20;99.90;;;;;;5049100;28;20499;-57
2021/05/27 06:43:24;;;;;;;6.27;5.50;;;13.30;1.00;;;;;;5047712;28;20762;-58
2021/05/27 06:45:49;;;;;;;5.40;5.00;;;13.40;99.90;;;;;;5048705;28;20236;-56
2021/05/27 06:48:15;;;;;;;5.10;4.70;;;13.50;1.00;;;;;;5048352;28;20168;-59
2021/05/27 06:50:41;;;;;;;5.37;4.97;;;13.60;99.90;;;;;;5049306;28;20185;-58
2021/05/27 06:53:11;;;;;;;4.77;4.40;;;13.60;1.00;;;;;;5048479;28;20262;-64
2021/05/27 06:55:39;;;;;;;5.07;4.67;;;13.60;99.90;;;;;;5048838;28;20196;-56
2021/05/27 06:58:05;;;;;;;4.90;4.50;;;13.50;99.90;;;;;;5048117;28;20440;-59
2021/05/27 07:00:32;;;;;;;5.40;4.57;;;13.60;99.90;;;;;;5048932;28;20458;-55
2021/05/27 07:02:57;;;;;;;5.40;5.00;;;13.50;99.90;;;;;;5047554;28;20518;-56
2021/05/27 07:05:24;;;;;;;5.20;4.70;;;13.50;99.90;;;;;;5048777;28;20431;-57
2021/05/27 07:07:50;;;;;;;5.10;4.70;;;13.40;99.90;;;;;;5048013;28;20213;-58
2021/05/27 07:10:17;;;;;;;5.00;4.60;;;13.20;1.00;;;;;;5048453;28;20436;-58
2021/05/27 07:12:50;;;;;;;4.60;4.30;;;13.20;1.00;;;;;;5048165;28;21617;-59
2021/05/27 07:15:17;;;;;;;5.10;4.70;;;13.30;1.00;;;;;;5047582;28;20425;-58
2021/05/27 07:17:43;;;;;;;5.33;4.57;;;13.40;1.00;;;;;;5048809;28;20756;-57
2021/05/27 07:20:09;;;;;;;5.77;5.27;;;13.50;1.00;;;;;;5047234;28;20475;-58
2021/05/27 07:22:35;;;;;;;5.20;4.70;;;13.40;1.00;;;;;;5048294;28;20178;-58
2021/05/27 07:25:00;;;;;;;5.70;5.20;;;13.50;99.90;;;;;;5048512;28;20412;-58
2021/05/27 07:27:26;;;;;;;5.00;4.60;;;13.50;1.00;;;;;;5047979;28;20175;-58
2021/05/27 07:29:51;;;;;;;5.00;4.60;;;13.50;1.00;;;;;;5047290;28;20191;-65
2021/05/27 07:32:17;;;;;;;4.53;4.23;;;13.60;99.90;;;;;;5042341;28;20182;-61
2021/05/27 07:34:46;;;;;;;4.87;4.47;;;13.70;99.90;;;;;;5030333;28;20174;-60
2021/05/27 07:37:12;;;;;;;5.10;4.70;;;13.80;99.90;;;;;;5033886;28;20180;-58
2021/05/27 07:39:38;;;;;;;4.83;4.53;;;13.90;99.90;;;;;;5042738;28;20916;-57
2021/05/27 07:42:06;;;;;;;5.40;4.97;;;14.00;1.00;;;;;;5045426;28;20527;-58
2021/05/27 07:44:33;;;;;;;4.63;4.33;;;14.10;99.90;;;;;;5048253;28;20221;-58
2021/05/27 07:46:59;;;;;;;4.53;4.10;;;14.20;99.90;;;;;;5057900;28;20433;-57
2021/05/27 07:49:25;;;;;;;4.33;4.03;;;14.40;1.00;;;;;;5033453;28;20909;-57
2021/05/27 07:51:50;;;;;;;4.67;4.33;;;14.50;99.90;;;;;;5048025;28;20260;-54
2021/05/27 07:54:16;;;;;;;4.43;3.70;;;14.40;1.00;;;;;;5047793;28;20179;-56
2021/05/27 07:56:41;;;;;;;4.63;4.23;;;14.50;61.40;;;;;;5047732;28;20246;-58
2021/05/27 07:59:07;;;;;;;4.20;3.90;;;14.60;1.00;;;;;;5038964;28;20187;-59
2021/05/27 08:01:32;;;;;;;5.20;3.80;;;14.50;1.00;;;;;;5050034;28;20209;-60
2021/05/27 08:03:58;;;;;;;5.37;4.23;;;14.40;1.00;;;;;;5055487;28;20183;-55
2021/05/27 08:06:24;;;;;;;4.67;4.27;;;14.40;99.90;;;;;;5043210;28;20202;-59
2021/05/27 08:08:49;;;;;;;3.63;3.33;;;14.40;1.00;;;;;;5047331;28;20180;-58
2021/05/27 08:11:15;;;;;;;4.03;3.83;;;14.50;1.00;;;;;;5046016;28;20176;-65
2021/05/27 08:13:41;;;;;;;4.40;4.10;;;14.50;99.90;;;;;;5033373;28;20230;-59
2021/05/27 08:16:07;;;;;;;3.80;3.50;;;14.50;1.00;;;;;;5051112;28;20434;-59
2021/05/27 08:18:32;;;;;;;4.20;3.90;;;14.60;1.00;;;;;;5051172;28;20422;-59
2021/05/27 08:20:58;;;;;;;4.40;4.10;;;14.60;1.00;;;;;;5051528;28;20726;-60
2021/05/27 08:23:24;;;;;;;4.40;4.00;;;14.70;1.00;;;;;;5051306;28;20253;-59
2021/05/27 08:25:49;;;;;;;3.77;3.47;;;14.80;1.00;;;;;;5050458;28;20215;-59
2021/05/27 08:28:15;;;;;;;4.20;3.90;;;15.00;99.90;;;;;;5051070;28;20178;-58
2021/05/27 08:30:40;;;;;;;4.07;3.77;;;15.10;99.90;;;;;;5050749;28;20193;-60
2021/05/27 08:33:06;;;;;;;3.63;3.43;;;15.20;99.90;;;;;;5050935;28;20553;-58
2021/05/27 08:35:31;;;;;;;3.57;3.37;;;15.30;99.90;;;;;;5051043;28;20179;-60
2021/05/27 08:37:57;;;;;;;3.93;3.63;;;15.40;99.90;;;;;;5050805;28;20247;-59
2021/05/27 08:40:22;;;;;;;4.33;3.70;;;15.70;99.90;;;;;;5048879;28;20201;-59
2021/05/27 08:42:49;;;;;;;5.30;3.43;;;15.60;83.90;;;;;;5051104;28;20739;-56
2021/05/27 08:45:16;;;;;;;3.43;3.23;;;15.70;1.60;;;;;;5057707;28;20234;-57
2021/05/27 08:47:41;;;;;;;4.07;3.87;;;15.80;1.00;;;;;;5053410;28;20412;-58
2021/05/27 08:50:09;;;;;;;4.00;3.70;;;15.80;1.00;;;;;;5050967;28;20431;-59
2021/05/27 08:52:34;;;;;;;3.53;3.33;;;15.90;1.00;;;;;;5050651;28;20560;-59
2021/05/27 08:55:01;;;;;;;4.00;3.80;;;16.20;1.00;;;;;;5049630;28;20429;-59
2021/05/27 08:57:27;;;;;;;4.20;3.90;;;16.40;1.00;;;;;;5050657;28;20538;-59
2021/05/27 08:59:52;;;;;;;3.63;3.20;;;16.50;1.00;;;;;;5050661;28;20426;-60
2021/05/27 09:02:18;;;;;;;4.03;3.27;;;16.70;1.00;;;;;;5050489;28;20509;-58
2021/05/27 09:04:43;;;;;;;3.80;3.53;;;16.70;1.00;;;;;;5050583;28;20180;-58
2021/05/27 09:07:11;;;;;;;3.73;3.50;;;16.80;1.00;;;;;;5048439;28;20207;-58
2021/05/27 09:09:58;;;;;;;3.57;3.37;;;16.90;1.00;;;;;;5050306;28;20590;-59
2021/05/27 09:12:26;;;;;;;4.13;3.33;;;16.90;1.00;;;;;;5041243;28;20716;-59
2021/05/27 09:14:52;;;;;;;4.53;3.50;;;16.70;1.00;;;;;;5050336;28;20783;-61
2021/05/27 09:17:18;;;;;;;3.47;3.33;;;16.90;1.00;;;;;;5050106;28;20401;-61
2021/05/27 09:19:43;;;;;;;4.00;3.80;;;17.00;1.00;;;;;;5050353;28;20188;-58
2021/05/27 09:22:21;;;;;;;3.73;3.53;;;17.10;1.00;;;;;;5050248;28;20220;-60
2021/05/27 09:24:48;;;;;;;3.80;3.60;;;17.30;1.00;;;;;;5049643;28;20180;-57
2021/05/27 09:27:14;;;;;;;3.57;3.37;;;17.20;1.00;;;;;;5049903;28;20436;-61
2021/05/27 09:29:46;;;;;;;3.90;3.70;;;17.00;1.00;;;;;;5049810;28;20434;-59
2021/05/27 09:32:13;;;;;;;4.53;4.23;;;17.00;1.00;;;;;;5050010;28;20965;-60
2021/05/27 09:34:51;;;;;;;3.90;3.67;;;16.90;1.00;;;;;;5050235;28;20470;-57
2021/05/27 09:37:30;;;;;;;3.50;3.30;;;16.80;1.00;;;;;;5049743;28;20423;-58
2021/05/27 09:40:00;;;;;;;4.00;3.70;;;17.00;1.00;;;;;;5040372;28;20419;-57
2021/05/27 09:42:26;;;;;;;3.70;3.50;;;17.00;1.00;;;;;;5049769;28;20474;-60
2021/05/27 09:44:52;;;;;;;3.87;3.67;;;16.80;1.00;;;;;;5054156;28;20464;-56
2021/05/27 09:47:32;;;;;;;4.00;3.80;;;16.70;1.00;;;;;;5051824;28;20427;-58
2021/05/27 09:49:59;;;;;;;4.07;3.77;;;16.60;1.00;;;;;;5042330;28;20180;-58
2021/05/27 09:52:26;;;;;;;3.57;3.37;;;16.50;1.00;;;;;;5050870;28;20488;-58
2021/05/27 09:54:56;;;;;;;3.83;3.63;;;16.50;1.00;;;;;;5051177;28;20421;-58
2021/05/27 09:57:27;;;;;;;3.73;3.43;;;16.50;1.00;;;;;;5051218;28;20468;-58
2021/05/27 09:59:54;;;;;;;4.33;3.93;;;16.50;1.00;;;;;;5053742;28;20432;-59
2021/05/27 10:02:21;;;;;;;3.40;3.13;;;16.50;1.00;;;;;;5052521;28;20447;-60
2021/05/27 10:04:56;;;;;;;3.70;3.30;;;16.50;1.00;;;;;;5041751;28;20776;-58
2021/05/27 10:07:38;;;;;;;3.20;3.10;;;16.70;1.00;;;;;;5050876;28;20852;-57
2021/05/27 10:10:06;;;;;;;3.50;3.30;;;16.90;1.00;;;;;;5050894;28;20408;-57
2021/05/27 10:12:37;;;;;;;3.53;3.33;;;16.70;1.00;;;;;;5054940;28;20458;-59
2021/05/27 10:15:04;;;;;;;3.63;3.43;;;16.70;1.00;;;;;;5050909;28;21014;-59
2021/05/27 10:17:31;;;;;;;3.60;3.40;;;16.70;1.00;;;;;;5052179;28;21015;-58
2021/05/27 10:19:57;;;;;;;4.10;3.87;;;16.60;1.00;;;;;;5051154;28;20409;-58
2021/05/27 10:22:22;;;;;;;3.60;3.40;;;16.50;1.00;;;;;;5048459;28;20426;-58
2021/05/27 10:24:48;;;;;;;3.63;3.33;;;16.60;1.00;;;;;;5040756;28;20818;-58
2021/05/27 10:27:13;;;;;;;3.90;3.67;;;16.60;1.00;;;;;;5049698;28;20187;-58
2021/05/27 10:29:40;;;;;;;3.77;3.47;;;16.50;1.00;;;;;;5051440;28;20176;-57
2021/05/27 10:32:06;;;;;;;3.43;3.23;;;16.50;1.00;;;;;;5049320;28;20603;-58
2021/05/27 10:34:42;;;;;;;3.93;3.73;;;16.50;1.00;;;;;;5048982;28;20445;-58
2021/05/27 10:37:08;;;;;;;3.70;3.50;;;16.40;1.00;;;;;;5049711;28;20432;-59
2021/05/27 10:39:34;;;;;;;3.80;3.50;;;16.50;1.00;;;;;;5049679;28;20868;-58
2021/05/27 10:42:00;;;;;;;3.40;3.10;;;16.40;1.00;;;;;;5050066;28;20466;-59
2021/05/27 10:44:25;;;;;;;3.60;3.40;;;16.30;1.00;;;;;;5050262;28;20306;-59
2021/05/27 10:46:54;;;;;;;3.80;3.60;;;16.30;1.00;;;;;;5053318;28;20185;-58
2021/05/27 10:49:38;;;;;;;3.87;3.67;;;16.40;1.00;;;;;;5047950;28;20238;-59
2021/05/27 10:52:33;;;;;;;3.60;3.40;;;16.20;1.00;;;;;;5053117;28;20793;-58
2021/05/27 10:54:59;;;;;;;3.70;3.50;;;16.20;1.00;;;;;;5036977;28;20853;-58
2021/05/27 10:57:39;;;;;;;4.20;3.90;;;16.50;1.00;;;;;;5029680;28;20504;-59
2021/05/27 11:00:31;;;;;;;4.00;3.80;;;16.50;1.00;;;;;;5028364;28;20191;-60
2021/05/27 11:03:16;;;;;;;3.90;3.70;;;16.50;1.00;;;;;;5030398;28;20950;-58
2021/05/27 11:06:17;;;;;;;4.40;4.00;;;16.30;1.00;;;;;;5031728;28;21109;-60
2021/05/27 11:08:43;;;;;;;3.60;3.40;;;16.00;1.00;;;;;;5029282;28;20493;-61
2021/05/27 11:11:35;;;;;;;3.63;3.43;;;16.10;1.00;;;;;;5029508;28;20467;-55
2021/05/27 11:14:19;;;;;;;3.50;3.30;;;16.00;1.00;;;;;;5027764;28;20654;-59
2021/05/27 11:17:15;;;;;;;3.77;3.47;;;16.10;1.00;;;;;;5032343;28;20416;-56
2021/05/27 11:22:27;;;;;;;3.60;3.40;;;16.20;1.00;;;;;;5028742;28;20469;-57
2021/05/27 11:27:41;;;;;;;3.97;3.77;;;16.60;1.00;;;;;;5036485;28;20504;-58
2021/05/27 11:30:12;;;;;;;3.57;3.37;;;16.90;1.00;;;;;;5047156;28;20412;-58
2021/05/27 11:32:38;;;;;;;3.37;3.17;;;17.20;1.00;;;;;;5046658;28;20416;-55
2021/05/27 11:35:04;;;;;;;3.77;3.47;;;17.30;1.00;;;;;;5046918;28;20416;-55
2021/05/27 11:37:38;;;;;;;4.17;3.97;;;17.20;99.90;;;;;;5046849;28;20189;-58
2021/05/27 11:40:06;;;;;;;3.80;3.60;;;16.70;1.00;;;;;;5045931;28;20422;-58
2021/05/27 11:42:33;;;;;;;3.83;3.63;;;16.40;1.00;;;;;;5047180;28;20417;-55
2021/05/27 11:45:01;;;;;;;3.47;3.20;;;16.30;1.00;;;;;;5011028;28;1039232;-58
2021/05/27 11:47:27;;;;;;;3.40;3.20;;;16.30;1.00;;;;;;5041974;28;20434;-57
2021/05/27 11:50:07;;;;;;;3.40;3.20;;;16.40;1.00;;;;;;5032319;28;20459;-57
2021/05/27 11:52:33;;;;;;;3.40;3.20;;;16.30;1.00;;;;;;5034304;28;20433;-58
2021/05/27 11:54:58;;;;;;;3.30;3.10;;;16.20;99.90;;;;;;5031106;28;20467;-57
2021/05/27 11:57:44;;;;;;;3.33;3.13;;;16.00;1.00;;;;;;5031430;28;20464;-58
2021/05/27 12:00:12;;;;;;;4.13;3.83;;;15.90;1.00;;;;;;5029563;28;20419;-55
2021/05/27 12:02:59;;;;;;;3.83;3.53;;;15.60;1.00;;;;;;5027091;28;20507;-57
2021/05/27 12:05:34;;;;;;;3.57;3.27;;;15.30;86.40;;;;;;5032134;28;20914;-57
2021/05/27 12:08:05;;;;;;;3.70;3.40;;;15.20;99.90;;;;;;5029932;28;20417;-59
2021/05/27 12:10:36;;;;;;;3.93;3.60;;;15.10;1.00;;;;;;5037257;28;20413;-56
2021/05/27 12:13:03;;;;;;;3.37;3.13;;;15.10;1.00;;;;;;5047227;28;20485;-59
2021/05/27 12:15:31;;;;;;;3.23;3.03;;;15.40;1.00;;;;;;5048488;28;20437;-61
2021/05/27 12:17:58;;;;;;;3.73;3.47;;;15.70;1.00;;;;;;5048896;28;20935;-59
2021/05/27 12:20:28;;;;;;;4.20;3.77;;;16.00;1.00;;;;;;5046692;28;20538;-57
2021/05/27 12:23:12;;;;;;;3.70;3.40;;;16.30;1.00;;;;;;5047054;28;20801;-58
2021/05/27 12:25:43;;;;;;;3.77;3.47;;;16.70;1.00;;;;;;5045529;28;20742;-57
2021/05/27 12:28:23;;;;;;;3.47;3.27;;;17.00;1.00;;;;;;5047420;28;20431;-60
2021/05/27 12:30:59;;;;;;;3.67;3.40;;;17.00;99.90;;;;;;5043059;28;20477;-62
2021/05/27 12:33:32;;;;;;;3.70;3.50;;;17.20;15.30;;;;;;5046843;28;20503;-60
2021/05/27 12:36:04;;;;;;;3.87;3.67;;;17.60;21.60;;;;;;5047099;28;20424;-56
2021/05/27 12:38:29;;;;;;;3.50;3.30;;;17.90;99.90;;;;;;5046611;28;20545;-57
2021/05/27 12:41:07;;;;;;;4.00;3.63;;;17.70;99.90;;;;;;5047077;28;20464;-59
2021/05/27 12:43:34;;;;;;;3.90;3.60;;;17.50;99.90;;;;;;5046872;28;20776;-59
2021/05/27 12:46:01;;;;;;;4.40;4.10;;;17.40;1.00;;;;;;5047224;28;20439;-57
2021/05/27 12:48:31;;;;;;;4.10;3.80;;;17.10;99.90;;;;;;5046990;28;20554;-54
2021/05/27 12:51:06;;;;;;;4.50;4.10;;;17.10;1.00;;;;;;5047784;28;20436;-58
2021/05/27 12:53:39;;;;;;;5.27;4.20;;;17.00;99.90;;;;;;5046729;28;20892;-59
2021/05/27 12:56:29;;;;;;;4.37;4.07;;;17.00;99.90;;;;;;5047434;28;20521;-58
2021/05/27 12:59:11;;;;;;;4.80;4.40;;;16.90;99.90;;;;;;5046618;28;21347;-60
2021/05/27 13:01:41;;;;;;;3.77;3.47;;;16.70;99.90;;;;;;5053607;28;20560;-57
2021/05/27 13:04:23;;;;;;;2.67;2.47;;;16.40;1.00;;;;;;5035982;28;20432;-55
2021/05/27 13:06:49;;;;;;;2.27;2.17;;;15.80;99.90;;;;;;5050138;28;20766;-57
2021/05/27 13:09:17;;;;;;;2.13;2.03;;;15.30;1.00;;;;;;5050599;28;20416;-59
2021/05/27 13:11:44;;;;;;;1.60;1.50;;;15.00;99.90;;;;;;5050307;28;20177;-55
2021/05/27 13:14:14;;;;;;;1.53;1.30;;;14.60;99.90;;;;;;5050485;28;20555;-59
2021/05/27 13:16:48;;;;;;;1.40;1.30;;;14.40;99.90;;;;;;5050339;28;20428;-56